createdAt,value
2023-03-06T00:00:16.698Z,48.74
2023-03-06T00:03:05.192Z,48.20
2023-03-06T00:05:32.663Z,48.24
2023-03-06T00:07:59.956Z,48.12
2023-03-06T00:10:30.382Z,48.76
2023-03-06T00:13:00.530Z,48.74
2023-03-06T00:15:28.953Z,48.29
2023-03-06T00:17:57.666Z,48.40
2023-03-06T00:20:26.918Z,48.67
2023-03-06T00:22:56.107Z,48.82
2023-03-06T00:25:23.970Z,48.87
2023-03-06T00:27:51.430Z,48.72
2023-03-06T00:30:20.981Z,48.33
2023-03-06T00:32:48.566Z,48.74
2023-03-06T00:35:16.341Z,48.22
2023-03-06T00:37:45.120Z,48.08
2023-03-06T00:40:15.309Z,48.11
2023-03-06T00:42:42.459Z,48.30
2023-03-06T00:45:11.225Z,48.49
2023-03-06T00:47:38.364Z,48.88
2023-03-06T00:50:06.570Z,48.44
2023-03-06T00:52:33.808Z,48.57
2023-03-06T00:55:02.827Z,48.70
2023-03-06T00:57:30.051Z,48.89
2023-03-06T00:59:57.340Z,48.53
2023-03-06T01:02:24.665Z,47.93
2023-03-06T01:04:52.006Z,48.36
2023-03-06T01:07:19.158Z,48.02
2023-03-06T01:09:46.553Z,48.25
2023-03-06T01:12:15.168Z,47.62
2023-03-06T01:14:42.537Z,48.49
2023-03-06T01:17:09.720Z,48.49
2023-03-06T01:19:37.126Z,47.64
2023-03-06T01:22:04.128Z,48.05
2023-03-06T01:24:31.638Z,48.32
2023-03-06T01:26:58.686Z,48.23
2023-03-06T01:29:27.497Z,48.44
2023-03-06T01:31:54.482Z,48.58
2023-03-06T01:34:22.259Z,48.28
2023-03-06T01:36:49.489Z,48.17
2023-03-06T01:39:17.122Z,48.72
2023-03-06T01:41:44.253Z,48.16
2023-03-06T01:44:13.724Z,48.90
2023-03-06T01:46:42.574Z,48.47
2023-03-06T01:49:13.155Z,48.15
2023-03-06T01:51:43.984Z,48.06
2023-03-06T01:54:16.074Z,48.35
2023-03-06T01:56:46.248Z,48.47
2023-03-06T01:59:14.340Z,48.36
2023-03-06T02:01:44.220Z,48.24
2023-03-06T02:04:12.139Z,48.25
2023-03-06T02:06:43.236Z,48.51
2023-03-06T02:09:12.410Z,48.34
2023-03-06T02:11:46.754Z,48.37
2023-03-06T02:14:17.243Z,48.52
2023-03-06T02:16:46.092Z,48.27
2023-03-06T02:19:21.142Z,48.75
2023-03-06T02:21:48.227Z,48.90
2023-03-06T02:24:34.719Z,48.24
2023-03-06T02:27:05.474Z,48.03
2023-03-06T02:29:35.494Z,48.05
2023-03-06T02:32:02.632Z,47.94
2023-03-06T02:34:55.379Z,48.89
2023-03-06T02:37:24.198Z,48.26
2023-03-06T02:39:57.819Z,48.52
2023-03-06T02:42:28.900Z,48.57
2023-03-06T02:44:58.675Z,48.39
2023-03-06T02:47:25.997Z,48.77
2023-03-06T02:49:53.321Z,49.07
2023-03-06T02:52:20.449Z,48.10
2023-03-06T02:54:47.706Z,48.69
2023-03-06T02:57:14.906Z,48.60
2023-03-06T02:59:43.536Z,48.43
2023-03-06T03:02:11.048Z,48.65
2023-03-06T03:04:38.451Z,48.17
2023-03-06T03:07:05.459Z,48.45
2023-03-06T03:09:36.949Z,48.53
2023-03-06T03:12:05.372Z,48.77
2023-03-06T03:14:32.871Z,48.52
2023-03-06T03:17:01.877Z,48.63
2023-03-06T03:19:29.216Z,49.18
2023-03-06T03:21:56.331Z,49.29
2023-03-06T03:24:23.905Z,49.37
2023-03-06T03:26:50.969Z,49.45
2023-03-06T03:29:18.915Z,50.17
2023-03-06T03:31:45.986Z,50.39
2023-03-06T03:34:14.870Z,50.62
2023-03-06T03:36:42.301Z,51.02
2023-03-06T03:39:12.527Z,51.11
2023-03-06T03:41:39.751Z,51.21
2023-03-06T03:44:07.123Z,51.81
2023-03-06T03:46:34.223Z,51.79
2023-03-06T03:49:01.578Z,51.81
2023-03-06T03:51:30.075Z,51.66
2023-03-06T03:53:58.168Z,52.23
2023-03-06T03:56:25.965Z,52.28
2023-03-06T03:58:54.154Z,52.33
2023-03-06T04:01:21.336Z,52.61
2023-03-06T04:03:48.810Z,52.46
2023-03-06T04:06:16.084Z,52.87
2023-03-06T04:08:44.888Z,52.87
2023-03-06T04:11:12.004Z,52.71
2023-03-06T04:13:39.376Z,53.17
2023-03-06T04:16:07.302Z,53.06
2023-03-06T04:18:34.580Z,52.85
2023-03-06T04:21:01.781Z,52.89
2023-03-06T04:23:29.187Z,53.00
2023-03-06T04:25:58.027Z,53.16
2023-03-06T04:28:25.695Z,53.16
2023-03-06T04:30:52.983Z,53.53
2023-03-06T04:33:20.251Z,53.45
2023-03-06T04:35:47.589Z,53.48
2023-03-06T04:38:15.109Z,53.37
2023-03-06T04:40:44.562Z,53.63
2023-03-06T04:43:13.929Z,53.68
2023-03-06T04:45:41.077Z,53.77
2023-03-06T04:48:08.870Z,53.98
2023-03-06T04:50:37.994Z,54.60
2023-03-06T04:53:05.329Z,54.06
2023-03-06T04:55:32.385Z,54.39
2023-03-06T04:57:59.978Z,54.40
2023-03-06T05:00:31.448Z,54.76
2023-03-06T05:03:00.215Z,54.88
2023-03-06T05:05:28.191Z,54.72
2023-03-06T05:07:55.903Z,54.62
2023-03-06T05:10:23.248Z,54.62
2023-03-06T05:12:50.868Z,54.65
2023-03-06T05:15:18.626Z,54.99
2023-03-06T05:17:47.898Z,54.99
2023-03-06T05:20:16.550Z,54.96
2023-03-06T05:22:44.057Z,55.23
2023-03-06T05:25:11.842Z,55.63
2023-03-06T05:27:39.883Z,55.26
2023-03-06T05:30:08.733Z,55.13
2023-03-06T05:32:36.182Z,55.27
2023-03-06T05:35:05.997Z,55.27
2023-03-06T05:37:34.035Z,55.36
2023-03-06T05:40:03.876Z,55.44
2023-03-06T05:46:02.608Z,55.29
2023-03-06T05:48:30.205Z,54.96
2023-03-06T05:51:00.142Z,54.97
2023-03-06T05:53:30.463Z,54.32
2023-03-06T05:56:00.515Z,54.01
2023-03-06T05:58:28.347Z,54.11
2023-03-06T06:00:57.653Z,55.15
2023-03-06T06:03:25.369Z,54.62
2023-03-06T06:05:55.210Z,54.43
2023-03-06T06:08:23.913Z,54.59
2023-03-06T06:10:53.275Z,54.52
2023-03-06T06:13:20.964Z,60.62
2023-03-06T06:15:48.163Z,58.00
2023-03-06T06:18:15.659Z,54.56
2023-03-06T06:20:42.731Z,56.29
2023-03-06T06:23:11.293Z,57.69
2023-03-06T06:25:39.801Z,59.27
2023-03-06T06:28:07.364Z,59.26
2023-03-06T06:30:34.550Z,59.44
2023-03-06T06:33:01.759Z,59.42
2023-03-06T06:35:28.804Z,59.01
2023-03-06T06:37:56.246Z,57.74
2023-03-06T06:40:24.430Z,57.03
2023-03-06T06:42:54.081Z,56.06
2023-03-06T06:45:21.220Z,54.73
2023-03-06T06:47:50.160Z,52.12
2023-03-06T06:50:17.379Z,50.73
2023-03-06T06:52:44.733Z,50.20
2023-03-06T06:55:12.701Z,48.57
2023-03-06T06:57:41.340Z,49.02
2023-03-06T07:00:12.932Z,48.29
2023-03-06T07:02:40.260Z,47.59
2023-03-06T07:05:08.207Z,46.84
2023-03-06T07:07:38.044Z,46.89
2023-03-06T07:10:07.001Z,47.17
2023-03-06T07:12:35.156Z,46.44
2023-03-06T07:15:03.027Z,46.49
2023-03-06T07:17:31.996Z,45.63
2023-03-06T07:19:59.663Z,45.60
2023-03-06T07:22:26.922Z,45.14
2023-03-06T07:24:54.533Z,44.86
2023-03-06T07:27:23.764Z,45.36
2023-03-06T07:29:50.679Z,42.76
2023-03-06T07:32:18.117Z,44.41
2023-03-06T07:34:46.830Z,44.20
2023-03-06T07:37:14.139Z,44.16
2023-03-06T07:39:41.212Z,44.22
2023-03-06T07:42:09.350Z,44.34
2023-03-06T07:44:36.794Z,43.57
2023-03-06T07:47:05.224Z,43.45
2023-03-06T07:49:32.903Z,43.69
2023-03-06T07:52:02.480Z,43.59
2023-03-06T07:54:30.809Z,42.74
2023-03-06T07:56:58.700Z,42.72
2023-03-06T07:59:25.816Z,42.88
2023-03-06T08:01:54.397Z,42.45
2023-03-06T08:04:21.756Z,40.83
2023-03-06T08:06:48.932Z,41.27
2023-03-06T08:09:17.366Z,42.04
2023-03-06T08:11:45.355Z,41.01
2023-03-06T08:14:12.739Z,40.38
2023-03-06T08:16:40.305Z,40.56
2023-03-06T08:19:07.703Z,40.64
2023-03-06T08:21:35.175Z,41.12
2023-03-06T08:24:02.338Z,40.66
2023-03-06T08:26:32.158Z,40.75
2023-03-06T08:29:00.929Z,40.86
2023-03-06T08:31:31.510Z,40.11
2023-03-06T08:34:01.649Z,39.89
2023-03-06T08:36:29.281Z,40.11
2023-03-06T08:38:56.551Z,40.01
2023-03-06T08:41:24.622Z,40.95
2023-03-06T08:43:53.236Z,41.38
2023-03-06T08:46:23.370Z,40.60
2023-03-06T08:48:50.567Z,40.38
2023-03-06T08:51:18.830Z,41.26
2023-03-06T08:53:46.495Z,41.25
2023-03-06T08:56:18.854Z,40.42
2023-03-06T08:58:46.459Z,40.56
2023-03-06T09:01:17.610Z,39.56
2023-03-06T09:03:44.801Z,39.68
2023-03-06T09:06:12.882Z,38.61
2023-03-06T09:08:44.449Z,38.88
2023-03-06T09:11:12.924Z,38.07
2023-03-06T09:13:40.241Z,37.77
2023-03-06T09:16:08.919Z,37.90
2023-03-06T09:18:37.444Z,38.04
2023-03-06T09:21:06.273Z,36.82
2023-03-06T09:23:33.857Z,36.21
2023-03-06T09:26:02.006Z,36.80
2023-03-06T09:28:29.443Z,37.02
2023-03-06T09:30:56.831Z,36.54
2023-03-06T09:33:24.295Z,36.76
2023-03-06T09:35:54.665Z,35.81
2023-03-06T09:38:24.577Z,35.65
2023-03-06T09:41:05.089Z,35.78
2023-03-06T09:43:35.652Z,36.00
2023-03-06T09:46:14.493Z,35.18
2023-03-06T09:48:52.918Z,35.64
2023-03-06T09:51:28.981Z,37.30
2023-03-06T09:54:05.156Z,35.38
2023-03-06T09:56:36.121Z,35.45
2023-03-06T09:59:12.545Z,34.26
2023-03-06T10:01:43.941Z,34.80
2023-03-06T10:04:30.824Z,34.50
2023-03-06T10:07:05.035Z,33.19
2023-03-06T10:09:41.538Z,34.09
2023-03-06T10:12:22.057Z,34.45
2023-03-06T10:15:01.966Z,34.60
2023-03-06T10:17:35.716Z,34.60
2023-03-06T10:20:11.063Z,33.77
2023-03-06T10:22:52.590Z,34.29
2023-03-06T10:25:28.036Z,32.77
2023-03-06T10:28:02.769Z,32.76
2023-03-06T10:30:38.843Z,32.91
2023-03-06T10:33:09.654Z,31.63
2023-03-06T10:35:48.443Z,31.67
2023-03-06T10:38:21.928Z,31.25
2023-03-06T10:41:04.241Z,31.35
2023-03-06T10:43:34.041Z,29.61
2023-03-06T10:46:03.859Z,31.17
2023-03-06T10:48:40.888Z,31.21
2023-03-06T10:51:27.420Z,30.66
2023-03-06T10:53:58.775Z,30.55
2023-03-06T10:56:28.552Z,28.91
2023-03-06T10:59:07.391Z,29.57
2023-03-06T11:01:34.953Z,30.80
2023-03-06T11:04:17.064Z,31.11
2023-03-06T11:06:44.701Z,30.41
2023-03-06T11:09:22.828Z,31.03
2023-03-06T11:11:50.792Z,30.98
2023-03-06T11:14:20.923Z,30.22
2023-03-06T11:16:53.389Z,30.84
2023-03-06T11:19:24.141Z,29.89
2023-03-06T11:22:02.464Z,30.10
2023-03-06T11:24:37.551Z,29.84
2023-03-06T11:27:20.176Z,29.22
2023-03-06T11:29:50.321Z,28.96
2023-03-06T11:32:23.156Z,29.16
2023-03-06T11:34:54.800Z,29.77
2023-03-06T11:37:29.885Z,30.09
2023-03-06T11:40:06.467Z,29.04
2023-03-06T11:42:39.982Z,29.49
2023-03-06T11:45:21.429Z,29.31
2023-03-06T11:47:54.433Z,29.19
2023-03-06T11:50:27.628Z,29.31
2023-03-06T11:52:57.762Z,28.75
2023-03-06T11:55:39.234Z,29.56
2023-03-06T11:58:48.035Z,29.84
2023-03-06T12:01:24.376Z,28.98
2023-03-06T12:04:07.076Z,29.53
2023-03-06T12:06:45.987Z,29.58
2023-03-06T12:09:24.435Z,30.60
2023-03-06T12:11:59.930Z,31.55
2023-03-06T12:14:41.048Z,32.15
2023-03-06T12:21:26.588Z,30.52
2023-03-06T12:24:51.925Z,30.77
2023-03-06T12:27:31.606Z,30.49
2023-03-06T12:30:15.512Z,31.29
2023-03-06T12:32:52.328Z,31.12
2023-03-06T12:35:39.824Z,30.40
2023-03-06T12:38:20.504Z,30.13
2023-03-06T12:41:03.136Z,29.97
2023-03-06T12:44:05.561Z,29.50
2023-03-06T12:46:38.429Z,29.12
2023-03-06T12:49:11.195Z,29.94
2023-03-06T12:51:40.495Z,29.13
2023-03-06T12:54:10.647Z,29.97
2023-03-06T12:56:39.800Z,29.94
2023-03-06T12:59:31.046Z,29.98
2023-03-06T13:02:17.917Z,28.88
2023-03-06T13:04:50.655Z,28.45
2023-03-06T13:07:53.088Z,28.77
2023-03-06T13:10:25.687Z,28.64
2023-03-06T13:12:56.079Z,29.26
2023-03-06T13:15:42.642Z,29.49
2023-03-06T13:18:56.199Z,29.44
2023-03-06T13:21:46.779Z,29.99
2023-03-06T13:24:21.441Z,30.47
2023-03-06T13:26:53.057Z,30.21
2023-03-06T13:30:04.811Z,30.78
2023-03-06T13:32:35.170Z,30.78
2023-03-06T13:35:36.721Z,30.80
2023-03-06T13:38:04.464Z,30.91
2023-03-06T13:40:35.520Z,31.11
2023-03-06T13:43:40.733Z,31.24
2023-03-06T13:46:24.906Z,31.42
2023-03-06T13:49:11.953Z,31.78
2023-03-06T13:51:40.866Z,31.86
2023-03-06T13:54:28.396Z,31.47
2023-03-06T13:57:16.473Z,31.46
2023-03-06T14:00:11.675Z,30.87
2023-03-06T14:02:58.698Z,31.60
2023-03-06T14:05:41.197Z,31.42
2023-03-06T14:08:12.570Z,31.88
2023-03-06T14:10:40.663Z,31.86
2023-03-06T14:13:15.934Z,31.98
2023-03-06T14:15:45.992Z,32.24
2023-03-06T14:18:20.302Z,32.00
2023-03-06T14:20:54.837Z,31.93
2023-03-06T14:23:28.598Z,32.31
2023-03-06T14:26:02.868Z,31.26
2023-03-06T14:28:31.144Z,31.51
2023-03-06T14:31:01.300Z,32.15
2023-03-06T14:33:36.982Z,31.63
2023-03-06T14:36:10.260Z,31.39
2023-03-06T14:38:45.226Z,32.13
2023-03-06T14:41:14.141Z,31.87
2023-03-06T14:43:41.412Z,32.62
2023-03-06T14:46:19.317Z,32.44
2023-03-06T14:48:48.411Z,32.20
2023-03-06T14:51:18.449Z,32.19
2023-03-06T14:53:48.626Z,32.07
2023-03-06T14:56:18.897Z,32.62
2023-03-06T14:58:53.739Z,32.06
2023-03-06T15:01:31.475Z,32.15
2023-03-06T15:04:00.803Z,32.38
2023-03-06T15:06:31.072Z,32.63
2023-03-06T15:09:02.746Z,32.72
2023-03-06T15:11:51.196Z,32.98
2023-03-06T15:14:20.643Z,33.07
2023-03-06T15:16:47.865Z,33.24
2023-03-06T15:19:19.464Z,33.02
2023-03-06T15:21:50.255Z,32.72
2023-03-06T15:24:32.579Z,32.75
2023-03-06T15:27:02.761Z,33.07
2023-03-06T15:29:30.514Z,33.21
2023-03-06T15:32:13.564Z,33.22
2023-03-06T15:34:41.082Z,33.50
2023-03-06T15:37:27.572Z,33.52
2023-03-06T15:40:06.628Z,33.72
2023-03-06T15:42:35.204Z,33.79
2023-03-06T15:45:12.657Z,33.57
2023-03-06T15:47:40.410Z,33.76
2023-03-06T15:50:14.578Z,34.03
2023-03-06T15:52:43.959Z,34.25
2023-03-06T15:55:13.084Z,34.23
2023-03-06T15:57:41.828Z,34.44
2023-03-06T16:00:26.646Z,34.12
2023-03-06T16:02:54.702Z,34.25
2023-03-06T16:05:22.649Z,34.08
2023-03-06T16:07:51.838Z,34.86
2023-03-06T16:10:21.578Z,34.58
2023-03-06T16:12:51.721Z,34.88
2023-03-06T16:15:25.344Z,34.92
2023-03-06T16:17:52.479Z,34.94
2023-03-06T16:20:21.654Z,34.63
2023-03-06T16:22:49.919Z,35.15
2023-03-06T16:25:18.781Z,35.11
2023-03-06T16:27:55.392Z,35.59
2023-03-06T16:30:24.211Z,35.81
2023-03-06T16:32:51.399Z,35.39
2023-03-06T16:35:18.901Z,35.63
2023-03-06T16:37:48.370Z,36.09
2023-03-06T16:40:22.165Z,36.12
2023-03-06T16:42:50.462Z,36.32
2023-03-06T16:45:19.824Z,36.51
2023-03-06T16:47:48.208Z,36.40
2023-03-06T16:50:23.674Z,36.40
2023-03-06T16:52:51.714Z,36.64
2023-03-06T16:55:20.439Z,36.93
2023-03-06T16:57:47.880Z,37.24
2023-03-06T17:00:17.175Z,37.33
2023-03-06T17:02:44.336Z,37.87
2023-03-06T17:05:12.243Z,37.93
2023-03-06T17:07:39.552Z,38.26
2023-03-06T17:10:09.537Z,38.32
2023-03-06T17:12:38.332Z,38.21
2023-03-06T17:15:07.688Z,38.31
2023-03-06T17:17:34.822Z,38.81
2023-03-06T17:20:02.852Z,38.61
2023-03-06T17:22:33.197Z,38.76
2023-03-06T17:25:01.035Z,38.66
2023-03-06T17:27:28.369Z,38.76
2023-03-06T17:29:58.128Z,38.54
2023-03-06T17:32:26.944Z,39.07
2023-03-06T17:34:54.735Z,38.86
2023-03-06T17:37:22.205Z,39.22
2023-03-06T17:39:49.878Z,39.02
2023-03-06T17:42:17.207Z,39.13
2023-03-06T17:44:44.670Z,39.49
2023-03-06T17:47:13.204Z,39.28
2023-03-06T17:49:40.577Z,39.37
2023-03-06T17:52:07.905Z,39.44
2023-03-06T17:54:36.047Z,39.53
2023-03-06T17:57:05.359Z,39.61
2023-03-06T17:59:34.389Z,39.83
2023-03-06T18:02:02.116Z,39.70
2023-03-06T18:04:31.269Z,39.57
2023-03-06T18:06:58.591Z,39.62
2023-03-06T18:09:26.525Z,39.39
2023-03-06T18:11:53.701Z,39.20
2023-03-06T18:14:21.068Z,38.87
2023-03-06T18:16:48.426Z,39.15
2023-03-06T18:19:16.576Z,39.28
2023-03-06T18:21:47.396Z,39.09
2023-03-06T18:24:14.810Z,39.20
2023-03-06T18:26:44.647Z,38.75
2023-03-06T18:29:12.112Z,38.72
2023-03-06T18:31:40.939Z,38.90
2023-03-06T18:34:11.002Z,39.04
2023-03-06T18:36:39.122Z,39.11
2023-03-06T18:39:09.622Z,38.82
2023-03-06T18:41:37.286Z,38.34
2023-03-06T18:44:05.441Z,38.95
2023-03-06T18:46:35.204Z,39.20
2023-03-06T18:49:02.949Z,39.06
2023-03-06T18:51:30.801Z,39.48
2023-03-06T18:53:58.871Z,39.35
2023-03-06T18:56:27.738Z,39.03
2023-03-06T18:58:55.852Z,39.08
2023-03-06T19:01:23.276Z,39.84
2023-03-06T19:03:55.144Z,39.95
2023-03-06T19:06:22.138Z,39.92
2023-03-06T19:08:49.614Z,39.95
2023-03-06T19:11:18.135Z,40.55
2023-03-06T19:13:46.973Z,40.51
2023-03-06T19:16:18.524Z,40.11
2023-03-06T19:18:45.871Z,39.86
2023-03-06T19:21:15.493Z,40.02
2023-03-06T19:23:43.114Z,40.33
2023-03-06T19:26:11.127Z,40.42
2023-03-06T19:28:40.917Z,40.49
2023-03-06T19:31:11.845Z,40.86
2023-03-06T19:33:40.097Z,40.52
2023-03-06T19:36:09.412Z,40.72
2023-03-06T19:38:37.393Z,40.60
2023-03-06T19:41:05.103Z,40.45
2023-03-06T19:43:32.506Z,41.17
2023-03-06T19:46:01.025Z,41.87
2023-03-06T19:48:29.928Z,41.86
2023-03-06T19:50:56.891Z,42.14
2023-03-06T19:53:26.105Z,42.75
2023-03-06T19:55:53.145Z,43.12
2023-03-06T19:58:25.909Z,43.37
2023-03-06T20:00:55.864Z,43.62
2023-03-06T20:03:23.256Z,43.76
2023-03-06T20:05:52.069Z,43.83
2023-03-06T20:08:19.550Z,43.82
2023-03-06T20:10:46.686Z,44.38
2023-03-06T20:13:14.174Z,44.43
2023-03-06T20:15:41.617Z,44.83
2023-03-06T20:18:09.217Z,45.15
2023-03-06T20:20:39.185Z,45.28
2023-03-06T20:23:08.181Z,45.29
2023-03-06T20:25:35.989Z,46.07
2023-03-06T20:28:03.845Z,46.48
2023-03-06T20:30:37.695Z,46.49
2023-03-06T20:33:05.476Z,46.76
2023-03-06T20:35:32.651Z,46.93
2023-03-06T20:38:01.826Z,47.46
2023-03-06T20:40:30.473Z,47.42
2023-03-06T20:43:00.721Z,47.77
2023-03-06T20:45:27.819Z,47.48
2023-03-06T20:47:57.156Z,47.76
2023-03-06T20:50:25.591Z,47.93
2023-03-06T20:52:54.269Z,47.86
2023-03-06T20:55:21.695Z,47.93
2023-03-06T20:57:52.320Z,48.36
2023-03-06T21:00:20.997Z,48.44
2023-03-06T21:02:48.556Z,48.95
2023-03-06T21:05:15.964Z,49.38
2023-03-06T21:07:43.740Z,49.79
2023-03-06T21:10:11.865Z,49.86
2023-03-06T21:12:39.316Z,50.80
2023-03-06T21:15:08.784Z,50.38
2023-03-06T21:17:36.487Z,50.43
2023-03-06T21:20:05.712Z,50.46
2023-03-06T21:22:33.214Z,51.46
2023-03-06T21:25:02.075Z,51.68
2023-03-06T21:27:29.652Z,51.93
2023-03-06T21:29:56.837Z,51.73
2023-03-06T21:32:29.372Z,52.43
2023-03-06T21:34:56.492Z,53.24
2023-03-06T21:37:24.114Z,53.33
2023-03-06T21:39:51.272Z,53.61
2023-03-06T21:42:18.792Z,53.70
2023-03-06T21:44:45.854Z,53.09
2023-03-06T21:47:13.351Z,54.03
2023-03-06T21:49:41.730Z,54.72
2023-03-06T21:52:09.044Z,54.92
2023-03-06T21:54:36.317Z,55.44
2023-03-06T21:57:19.700Z,54.85
2023-03-06T21:59:47.088Z,54.31
2023-03-06T22:02:14.209Z,54.50
2023-03-06T22:04:44.191Z,55.00
2023-03-06T22:07:11.576Z,54.58
2023-03-06T22:09:38.902Z,54.39
2023-03-06T22:12:06.215Z,54.13
2023-03-06T22:14:34.719Z,55.47
2023-03-06T22:17:02.099Z,54.92
2023-03-06T22:19:29.904Z,54.81
2023-03-06T22:21:58.389Z,55.21
2023-03-06T22:24:25.770Z,54.70
2023-03-06T22:26:52.735Z,55.39
2023-03-06T22:29:20.061Z,55.22
2023-03-06T22:31:47.184Z,55.54
2023-03-06T22:34:14.508Z,55.70
2023-03-06T22:36:43.108Z,55.67
2023-03-06T22:39:13.046Z,55.77
2023-03-06T22:41:40.636Z,55.92
2023-03-06T22:44:08.063Z,55.95
2023-03-06T22:46:35.587Z,55.85
2023-03-06T22:49:03.334Z,56.16
2023-03-06T22:51:30.764Z,55.44
2023-03-06T22:53:58.296Z,55.93
2023-03-06T22:56:27.130Z,56.40
2023-03-06T22:58:54.457Z,56.27
2023-03-06T23:01:23.436Z,56.51
2023-03-06T23:03:52.817Z,57.04
2023-03-06T23:06:20.972Z,57.48
2023-03-06T23:08:50.181Z,57.04
2023-03-06T23:11:17.803Z,56.99
2023-03-06T23:13:46.610Z,57.10
2023-03-06T23:16:13.868Z,56.58
2023-03-06T23:18:41.124Z,56.58
2023-03-06T23:21:09.931Z,56.82
2023-03-06T23:23:37.614Z,56.62
2023-03-06T23:26:05.757Z,56.89
2023-03-06T23:28:33.549Z,57.04
2023-03-06T23:31:07.121Z,57.79
2023-03-06T23:33:34.779Z,58.17
2023-03-06T23:36:02.825Z,57.93
2023-03-06T23:38:30.460Z,58.08
2023-03-06T23:41:01.745Z,58.26
2023-03-06T23:43:29.134Z,58.68
2023-03-06T23:45:56.780Z,58.73
2023-03-06T23:48:26.741Z,59.27
2023-03-06T23:50:54.133Z,60.32
2023-03-06T23:53:21.864Z,60.83
2023-03-06T23:55:50.250Z,60.71
2023-03-06T23:58:19.522Z,60.81
